Time;durP1;ratioP1;P1;durP2;ratioP2;P2;SDS_P1;SDS_P2;PMS_P1;PMS_P2;Temp;Humidity;BMP_temperature;BMP_pressure;BME280_temperature;BME280_humidity;BME280_pressure;Samples;Min_cycle;Max_cycle;Signal;HPM_P1;HPM_P2
2022/04/25 00:01:36;;;;;;;12.85;8.78;;;;;;;10.51;100.00;150296.20;1684805;84;21121;-65
2022/04/25 00:04:04;;;;;;;13.28;8.55;;;;;;;10.49;100.00;150290.97;1685580;84;20895;-66
2022/04/25 00:06:33;;;;;;;15.32;8.00;;;;;;;10.47;100.00;150285.78;1685254;84;21043;-65
2022/04/25 00:09:00;;;;;;;13.00;8.65;;;;;;;10.46;100.00;150283.19;1685472;83;21014;-65
2022/04/25 00:11:29;;;;;;;12.55;8.35;;;;;;;10.42;100.00;150272.83;1685022;84;21053;-65
2022/04/25 00:13:57;;;;;;;13.18;9.10;;;;;;;10.43;100.00;150275.42;1685386;84;21518;-68
2022/04/25 00:16:25;;;;;;;14.98;8.60;;;;;;;10.41;100.00;150270.23;1684847;84;21543;-66
2022/04/25 00:18:54;;;;;;;15.70;9.88;;;;;;;10.40;100.00;150267.59;1685461;84;21010;-66
2022/04/25 00:21:23;;;;;;;19.67;10.23;;;;;;;10.38;100.00;150262.41;1685450;84;20974;-66
2022/04/25 00:23:52;;;;;;;14.18;9.05;;;;;;;10.36;100.00;150257.22;1685862;84;21053;-66
2022/04/25 00:26:21;;;;;;;13.72;8.48;;;;;;;10.31;100.00;150245.53;1685012;84;21069;-66
2022/04/25 00:28:49;;;;;;;14.90;8.35;;;;;;;10.27;100.00;150236.44;1685561;84;21041;-66
2022/04/25 00:31:16;;;;;;;16.67;9.13;;;;;;;10.23;100.00;150226.06;1685029;84;21105;-66
2022/04/25 00:33:45;;;;;;;14.78;8.08;;;;;;;10.20;100.00;150218.28;1685725;84;21300;-66
2022/04/25 00:36:14;;;;;;;14.58;8.58;;;;;;;10.17;100.00;150210.50;1685557;84;20927;-65
2022/04/25 00:38:42;;;;;;;15.53;8.90;;;;;;;10.17;100.00;150210.50;1685359;84;21053;-65
2022/04/25 00:41:09;;;;;;;17.37;8.70;;;;;;;10.16;100.00;150207.91;1685146;85;21026;-65
2022/04/25 00:43:36;;;;;;;16.60;9.30;;;;;;;10.15;100.00;150205.31;1684756;84;21121;-65
2022/04/25 00:46:04;;;;;;;15.68;9.13;;;;;;;10.14;100.00;150202.73;1685749;85;20906;-65
2022/04/25 00:48:33;;;;;;;16.93;8.68;;;;;;;10.14;100.00;150202.73;1685287;84;21129;-65
2022/04/25 00:51:00;;;;;;;16.25;9.08;;;;;;;10.13;100.00;150200.13;1685765;84;21443;-65
2022/04/25 00:53:28;;;;;;;17.77;9.08;;;;;;;10.12;100.00;150197.55;1685286;84;22062;-65
2022/04/25 00:55:55;;;;;;;15.83;8.63;;;;;;;10.12;100.00;150197.55;1685901;84;21050;-65
2022/04/25 00:58:24;;;;;;;13.48;8.38;;;;;;;10.10;100.00;150192.36;1685486;84;20978;-66
2022/04/25 01:00:52;;;;;;;13.45;8.05;;;;;;;10.09;100.00;150189.77;1685732;84;21381;-65
2022/04/25 01:03:20;;;;;;;14.55;8.53;;;;;;;10.07;100.00;150184.59;1685352;84;21105;-65
2022/04/25 01:05:48;;;;;;;11.88;8.55;;;;;;;10.07;100.00;150184.59;1685658;84;20981;-66
2022/04/25 01:08:17;;;;;;;15.80;8.53;;;;;;;10.06;100.00;150183.27;1686024;84;21069;-65
2022/04/25 01:10:46;;;;;;;16.15;7.83;;;;;;;10.07;100.00;150184.59;1690629;84;21017;-66
2022/04/25 01:13:14;;;;;;;12.95;8.43;;;;;;;10.06;100.00;150183.27;1690453;83;20998;-66
2022/04/25 01:15:42;;;;;;;18.77;8.28;;;;;;;10.05;100.00;150180.67;1690540;83;21077;-66
2022/04/25 01:18:09;;;;;;;14.03;7.87;;;;;;;10.03;100.00;150176.75;1690883;84;21010;-67
2022/04/25 01:20:37;;;;;;;15.28;7.20;;;;;;;10.03;100.00;150175.48;1689675;83;21061;-65
2022/04/25 01:28:41;;;;;;;14.70;7.92;;;;;;;9.98;100.00;150163.80;1689484;84;21518;-66
2022/04/25 01:31:08;;;;;;;17.65;7.90;;;;;;;9.97;100.00;150161.20;1690007;84;21582;-66
2022/04/25 01:33:37;;;;;;;19.02;8.00;;;;;;;9.96;100.00;150158.61;1689902;83;21721;-66
2022/04/25 01:36:05;;;;;;;12.47;7.47;;;;;;;9.96;100.00;150158.61;1689863;83;21507;-65
2022/04/25 01:38:33;;;;;;;12.78;7.85;;;;;;;9.95;100.00;150156.03;1689555;83;21234;-64
2022/04/25 01:41:02;;;;;;;12.43;7.78;;;;;;;9.95;100.00;150154.75;1690565;83;21054;-64
2022/04/25 01:43:29;;;;;;;12.50;7.50;;;;;;;9.93;100.00;150150.84;1689906;84;21113;-66
2022/04/25 01:45:59;;;;;;;13.90;7.78;;;;;;;9.93;100.00;150150.84;1690368;83;21062;-65
2022/04/25 01:48:27;;;;;;;16.17;8.53;;;;;;;9.92;100.00;150148.25;1690253;84;21251;-65
2022/04/25 01:50:54;;;;;;;14.40;8.18;;;;;;;9.90;100.00;150143.06;1690733;83;21512;-65
2022/04/25 01:53:22;;;;;;;15.35;7.35;;;;;;;9.89;100.00;150140.47;1690508;84;21045;-65
2022/04/25 01:55:51;;;;;;;13.40;7.97;;;;;;;9.87;100.00;150135.28;1690545;84;21117;-66
2022/04/25 01:58:19;;;;;;;19.75;8.58;;;;;;;9.84;100.00;150128.78;1690504;83;21105;-66
2022/04/25 02:00:47;;;;;;;16.73;8.63;;;;;;;9.82;100.00;150122.28;1690596;83;21676;-65
2022/04/25 02:03:15;;;;;;;17.55;9.38;;;;;;;9.78;100.00;150111.91;1690590;84;21472;-65
2022/04/25 02:05:43;;;;;;;14.60;9.13;;;;;;;9.72;100.00;150098.95;1690797;83;21117;-66
2022/04/25 02:08:11;;;;;;;15.08;8.85;;;;;;;9.69;100.00;150091.19;1690710;84;21065;-65
2022/04/25 02:10:39;;;;;;;20.70;8.45;;;;;;;9.66;100.00;150083.41;1683262;83;21030;-66
2022/04/25 02:13:07;;;;;;;13.50;7.78;;;;;;;9.64;100.00;150078.22;1683376;83;21057;-65
2022/04/25 02:15:39;;;;;;;13.18;7.50;;;;;;;9.63;100.00;150075.64;1682870;84;21038;-65
2022/04/25 02:18:06;;;;;;;12.88;7.37;;;;;;;9.62;100.00;150071.72;1683308;84;21098;-64
2022/04/25 02:20:35;;;;;;;13.08;7.22;;;;;;;9.59;100.00;150065.22;1683044;84;21049;-64
2022/04/25 02:23:02;;;;;;;12.25;6.62;;;;;;;9.57;100.00;150060.03;1683309;84;21531;-65
2022/04/25 02:25:30;;;;;;;12.33;7.08;;;;;;;9.54;100.00;150053.59;1683317;83;20966;-65
2022/04/25 02:27:58;;;;;;;9.58;6.83;;;;;;;9.54;100.00;150052.27;1683413;83;21505;-65
2022/04/25 02:30:25;;;;;;;9.15;5.97;;;;;;;9.54;100.00;150052.27;1683129;83;22109;-65
2022/04/25 02:32:54;;;;;;;14.63;7.53;;;;;;;9.52;100.00;150047.09;1683295;84;21017;-65
2022/04/25 02:35:22;;;;;;;12.37;6.95;;;;;;;9.51;100.00;150044.48;1682942;83;21606;-65
2022/04/25 02:37:49;;;;;;;11.48;7.03;;;;;;;9.51;100.00;150044.48;1683273;83;21128;-65
2022/04/25 02:40:18;;;;;;;10.72;7.00;;;;;;;9.50;100.00;150043.17;1683042;84;20938;-65
2022/04/25 02:42:46;;;;;;;12.93;7.08;;;;;;;9.49;100.00;150040.58;1683029;83;21049;-65
2022/04/25 02:45:13;;;;;;;13.45;8.23;;;;;;;9.49;100.00;150039.31;1683150;83;21177;-65
2022/04/25 02:47:41;;;;;;;13.13;7.08;;;;;;;9.48;100.00;149358.22;1682811;85;21085;-65
2022/04/25 02:50:09;;;;;;;13.62;7.28;;;;;;;9.49;100.00;146442.31;1683157;85;21041;-65
2022/04/25 02:52:36;;;;;;;9.70;6.67;;;;;;;9.48;100.00;142231.78;1683274;85;21115;-65
2022/04/25 02:55:06;;;;;;;10.20;7.00;;;;;;;9.49;100.00;139807.47;1683170;83;20895;-65
2022/04/25 02:57:33;;;;;;;10.55;7.45;;;;;;;9.49;100.00;138249.05;1683311;84;21083;-65
2022/04/25 03:00:00;;;;;;;13.20;7.05;;;;;;;9.49;100.00;136518.27;1683120;83;21439;-65
2022/04/25 03:02:29;;;;;;;12.35;6.92;;;;;;;9.50;100.00;135137.73;1682641;84;21009;-65
2022/04/25 03:04:56;;;;;;;10.40;7.22;;;;;;;9.51;100.00;132892.16;1683188;85;21239;-65
2022/04/25 03:07:24;;;;;;;12.98;8.00;;;;;;;9.52;100.00;131165.03;1682656;83;21094;-65
2022/04/25 03:09:52;;;;;;;12.85;7.37;;;;;;;9.52;100.00;128920.70;1682888;84;21024;-65
2022/04/25 03:12:21;;;;;;;10.13;7.42;;;;;;;9.55;100.00;126682.09;1682722;83;21506;-65
2022/04/25 03:14:48;;;;;;;10.88;7.62;;;;;;;9.57;100.00;124961.12;1683104;83;21089;-65
2022/04/25 03:17:15;;;;;;;12.60;7.97;;;;;;;9.58;100.00;123757.09;1682807;83;20951;-65
2022/04/25 03:19:44;;;;;;;13.95;7.95;;;;;;;9.61;100.00;122383.13;1682675;83;21053;-65
2022/04/25 03:22:12;;;;;;;12.70;8.63;;;;;;;9.64;100.00;120666.06;1682324;85;21018;-65
2022/04/25 03:24:39;;;;;;;11.00;7.28;;;;;;;9.68;100.00;118779.45;1682365;83;21887;-66
2022/04/25 03:27:06;;;;;;;12.40;7.50;;;;;;;9.71;100.00;118612.36;1682493;83;20941;-64
2022/04/25 03:29:33;;;;;;;10.75;7.10;;;;;;;9.75;100.00;117243.02;1682030;84;21165;-65
2022/04/25 03:32:02;;;;;;;9.90;6.70;;;;;;;9.82;100.00;116223.23;1682424;83;21495;-66
2022/04/25 03:34:31;;;;;;;9.15;7.12;;;;;;;9.86;100.00;114682.36;1683864;83;21150;-67
2022/04/25 03:36:59;;;;;;;10.95;6.80;;;;;;;9.91;100.00;114348.14;1682942;83;21089;-66
2022/04/25 03:39:27;;;;;;;11.33;7.20;;;;;;;9.98;100.00;114706.20;1682401;83;21137;-66
2022/04/25 03:41:56;;;;;;;12.30;6.90;;;;;;;10.06;100.00;114032.69;1682644;83;21918;-66
2022/04/25 03:44:23;;;;;;;9.48;6.53;;;;;;;10.15;100.00;113533.19;1682102;83;21494;-69
2022/04/25 03:46:52;;;;;;;10.43;6.72;;;;;;;10.25;100.00;114413.56;1682257;83;21577;-66
2022/04/25 03:49:21;;;;;;;11.65;7.70;;;;;;;10.35;100.00;116153.77;1682834;85;21106;-66
2022/04/25 03:51:48;;;;;;;9.93;6.58;;;;;;;10.46;100.00;117555.70;1682517;83;21593;-67
2022/04/25 03:57:09;;;;;;;14.18;6.97;;;;;;;10.56;100.00;121887.80;1682205;83;20994;-67
2022/04/25 03:59:31;;;;;;;9.25;6.33;;;;;;;10.73;100.00;135242.84;1681935;83;22031;-66
2022/04/25 04:02:00;;;;;;;8.20;6.50;;;;;;;10.84;100.00;143250.30;1682491;83;21133;-66
2022/04/25 04:04:27;;;;;;;9.50;6.50;;;;;;;10.95;100.00;148782.81;1681818;83;21097;-67
2022/04/25 04:06:59;;;;;;;8.30;6.30;;;;;;;11.05;100.00;150431.16;1682300;83;21739;-67
2022/04/25 04:12:16;;;;;;;7.85;6.00;;;;;;;11.28;100.00;150488.28;1682307;83;20994;-66
2022/04/25 04:14:43;;;;;;;8.90;5.60;;;;;;;11.43;100.00;150527.25;1682273;83;21244;-66
2022/04/25 04:17:12;;;;;;;7.28;5.03;;;;;;;11.57;100.00;150560.98;1682214;83;20950;-66
2022/04/25 04:19:41;;;;;;;7.35;5.58;;;;;;;11.71;100.00;150597.38;1681947;83;21017;-68
2022/04/25 04:22:08;;;;;;;8.13;5.10;;;;;;;11.89;100.00;150641.53;1682773;83;21102;-66
2022/04/25 04:24:36;;;;;;;7.70;4.97;;;;;;;12.04;100.00;150680.53;1682625;85;21046;-66
2022/04/25 04:27:06;;;;;;;7.00;4.90;;;;;;;12.21;100.00;150722.09;1682950;83;20923;-68
2022/04/25 04:29:34;;;;;;;8.70;5.03;;;;;;;12.37;100.00;150761.09;1682269;85;22531;-67
2022/04/25 04:32:08;;;;;;;8.23;5.33;;;;;;;12.52;100.00;150800.09;1683086;83;21266;-66
2022/04/25 04:34:34;;;;;;;7.60;4.67;;;;;;;12.65;100.00;150831.25;1682550;83;21066;-66
2022/04/25 04:37:04;;;;;;;10.82;5.83;;;;;;;12.77;100.00;150862.47;1683249;84;21014;-66
2022/04/25 04:39:32;;;;;;;7.25;4.70;;;;;;;12.90;100.00;150896.23;1682309;83;21587;-66
2022/04/25 04:42:02;;;;;;;9.80;5.05;;;;;;;13.07;100.00;150937.84;1682866;83;21017;-67
2022/04/25 04:44:29;;;;;;;7.55;4.70;;;;;;;13.22;100.00;150975.55;1682109;84;21198;-66
2022/04/25 04:46:57;;;;;;;6.22;4.30;;;;;;;13.33;100.00;151002.84;1682640;83;21113;-66
2022/04/25 04:49:25;;;;;;;8.88;4.58;;;;;;;13.41;100.00;151023.69;1682270;85;21077;-65
2022/04/25 04:51:52;;;;;;;6.25;4.62;;;;;;;13.52;100.00;151051.03;1682668;85;21114;-65
2022/04/25 04:54:19;;;;;;;6.35;4.10;;;;;;;13.64;100.00;151079.62;1682362;83;21022;-65
2022/04/25 04:56:46;;;;;;;6.70;4.75;;;;;;;13.75;100.00;151109.53;1682372;85;21182;-65
2022/04/25 04:59:13;;;;;;;8.30;4.30;;;;;;;13.87;99.20;151138.17;1682528;84;20967;-65
2022/04/25 05:01:41;;;;;;;7.45;4.30;;;;;;;13.98;97.86;151165.48;1682483;83;21061;-66
2022/04/25 05:04:08;;;;;;;8.15;3.75;;;;;;;14.08;96.43;151190.20;1682977;85;20963;-66
2022/04/25 05:06:35;;;;;;;5.40;4.00;;;;;;;14.15;95.27;151208.41;1682176;83;21125;-66
2022/04/25 05:09:02;;;;;;;7.55;3.67;;;;;;;14.21;93.98;151222.73;1683100;83;21836;-65
2022/04/25 05:11:31;;;;;;;5.30;3.83;;;;;;;14.20;92.27;151221.41;1688916;83;21089;-66
2022/04/25 05:14:04;;;;;;;5.08;3.70;;;;;;;14.18;91.61;151216.20;1690564;83;21089;-65
2022/04/25 05:16:29;;;;;;;5.60;3.80;;;;;;;14.18;91.32;151217.53;1690660;84;21065;-66
2022/04/25 05:18:58;;;;;;;7.58;3.83;;;;;;;14.24;90.83;151230.53;1690608;83;21054;-67
2022/04/25 05:21:26;;;;;;;9.28;4.33;;;;;;;14.27;90.00;151239.66;1690045;83;21014;-65
2022/04/25 05:23:57;;;;;;;4.70;3.65;;;;;;;14.30;89.36;151246.13;1690331;84;21029;-66
2022/04/25 05:26:24;;;;;;;6.55;4.20;;;;;;;14.31;88.61;151250.05;1689852;83;21080;-66
2022/04/25 05:28:53;;;;;;;8.88;3.90;;;;;;;14.36;88.33;151261.72;1690564;83;21781;-67
2022/04/25 05:31:23;;;;;;;5.20;3.92;;;;;;;14.42;87.84;151276.05;1690579;83;20986;-67
2022/04/25 05:33:52;;;;;;;4.65;3.33;;;;;;;14.48;87.50;151291.70;1690449;84;21878;-65
2022/04/25 05:36:19;;;;;;;7.37;3.98;;;;;;;14.52;86.70;151302.11;1690371;83;21022;-67
2022/04/25 05:38:47;;;;;;;5.47;4.28;;;;;;;14.55;86.26;151309.91;1690322;83;21060;-67
2022/04/25 05:41:15;;;;;;;6.83;3.75;;;;;;;14.62;85.92;151326.83;1690672;84;20983;-65
2022/04/25 05:43:43;;;;;;;7.30;3.80;;;;;;;14.74;85.59;151356.81;1690440;83;21104;-67
2022/04/25 05:46:11;;;;;;;5.42;3.67;;;;;;;14.86;84.72;151386.75;1690634;84;21659;-67
2022/04/25 05:54:12;;;;;;;6.37;4.08;;;;;;;15.12;82.85;151453.09;1689862;84;21517;-67
2022/04/25 05:56:41;;;;;;;5.87;3.40;;;;;;;15.24;82.06;151481.77;1690009;83;21391;-68
2022/04/25 05:59:10;;;;;;;6.87;3.47;;;;;;;15.28;81.17;151492.17;1690592;84;21213;-66
2022/04/25 06:01:37;;;;;;;5.92;3.67;;;;;;;15.31;80.59;151499.97;1689929;83;21085;-67
2022/04/25 06:04:05;;;;;;;5.45;3.52;;;;;;;15.31;80.15;151499.97;1690626;83;21027;-66
2022/04/25 06:06:32;;;;;;;6.67;4.00;;;;;;;15.31;79.45;151499.97;1690157;83;21126;-65
2022/04/25 06:09:02;;;;;;;7.42;3.90;;;;;;;15.28;79.20;151492.17;1690250;83;21081;-67
2022/04/25 06:11:31;;;;;;;7.20;3.60;;;;;;;15.28;79.21;151493.50;1684621;83;21239;-66
2022/04/25 06:14:02;;;;;;;4.92;3.37;;;;;;;15.32;78.83;151502.58;1682390;84;21094;-66
2022/04/25 06:16:30;;;;;;;5.78;3.60;;;;;;;15.33;78.28;151505.19;1682911;83;21037;-66
2022/04/25 06:18:58;;;;;;;11.78;3.83;;;;;;;15.30;78.04;151497.38;1682737;85;21389;-65
2022/04/25 06:21:25;;;;;;;5.47;3.42;;;;;;;15.31;78.05;151501.30;1682559;84;21164;-64
2022/04/25 06:23:54;;;;;;;6.35;3.33;;;;;;;15.37;77.69;151515.64;1682560;83;21554;-64
2022/04/25 06:26:21;;;;;;;8.53;3.37;;;;;;;15.36;77.28;151512.98;1682507;83;21436;-65
2022/04/25 06:28:48;;;;;;;5.95;3.80;;;;;;;15.35;76.87;151510.38;1682758;83;21073;-65
2022/04/25 06:31:17;;;;;;;6.12;3.60;;;;;;;15.30;77.33;151498.70;1682815;84;20947;-66
2022/04/25 06:33:48;;;;;;;8.13;3.70;;;;;;;15.36;77.48;151512.98;1682492;83;21399;-65
2022/04/25 06:36:16;;;;;;;6.15;3.87;;;;;;;15.45;77.37;151536.45;1682781;85;21195;-65
2022/04/25 06:38:44;;;;;;;6.25;3.90;;;;;;;15.51;76.77;151549.47;1682215;83;22165;-64
2022/04/25 06:41:12;;;;;;;8.85;3.77;;;;;;;15.51;76.69;151549.47;1681441;84;21487;-64
2022/04/25 06:43:40;;;;;;;5.80;3.90;;;;;;;15.53;76.47;151554.66;1677392;84;21599;-64
2022/04/25 06:50:08;;;;;;;7.70;3.60;;;;;;;15.56;76.64;151562.47;1688839;83;21016;-61
2022/04/25 06:52:37;;;;;;;6.35;4.17;;;;;;;15.67;76.77;151591.14;1677234;84;21092;-63
2022/04/25 06:55:05;;;;;;;8.35;4.30;;;;;;;15.83;76.48;151631.52;1677481;83;21594;-63
2022/04/25 06:57:35;;;;;;;6.33;4.33;;;;;;;15.96;75.93;151664.13;1676571;85;21067;-63
2022/04/25 07:00:08;;;;;;;13.62;3.92;;;;;;;16.08;75.58;151692.81;1677193;84;21064;-63
2022/04/25 07:02:36;;;;;;;10.48;3.95;;;;;;;16.18;75.02;151718.84;1677922;84;21071;-62
2022/04/25 07:05:06;;;;;;;9.33;4.40;;;;;;;16.23;74.39;151731.84;1677459;85;20997;-65
2022/04/25 07:07:34;;;;;;;9.25;4.17;;;;;;;16.27;74.35;151742.31;1677890;84;21311;-64
2022/04/25 07:10:02;;;;;;;17.57;4.20;;;;;;;16.31;73.65;151752.72;1677888;84;21057;-60
2022/04/25 07:12:31;;;;;;;7.78;4.03;;;;;;;16.30;73.58;151748.80;1677530;84;21063;-61
2022/04/25 07:14:59;;;;;;;8.03;4.15;;;;;;;16.28;73.16;151744.91;1677913;84;21883;-61
2022/04/25 07:17:28;;;;;;;9.35;4.50;;;;;;;16.19;73.21;151721.44;1677688;84;21614;-63
2022/04/25 07:19:57;;;;;;;7.47;4.00;;;;;;;16.17;73.35;151717.56;1677916;84;21112;-61
2022/04/25 07:30:42;;;;;;;7.53;4.22;;;;;;;16.17;73.49;151716.22;1677280;84;21048;-61
2022/04/25 07:33:09;;;;;;;5.95;4.25;;;;;;;16.08;73.61;151692.81;1678293;85;21005;-61
2022/04/25 07:35:39;;;;;;;5.92;4.03;;;;;;;16.04;73.85;151683.66;1677431;85;21100;-62
2022/04/25 07:38:07;;;;;;;8.28;3.85;;;;;;;16.08;73.74;151692.81;1678580;85;21116;-62
2022/04/25 07:40:36;;;;;;;6.97;3.80;;;;;;;16.13;73.36;151705.81;1677475;84;21104;-63
2022/04/25 07:43:04;;;;;;;7.00;3.58;;;;;;;16.14;72.51;151708.42;1677358;84;21084;-63
2022/04/25 07:45:33;;;;;;;7.75;3.75;;;;;;;16.10;72.39;151698.02;1676860;84;21494;-61
2022/04/25 07:48:00;;;;;;;5.62;3.33;;;;;;;16.06;71.75;151687.59;1677618;84;21088;-63
2022/04/25 07:50:27;;;;;;;6.37;3.45;;;;;;;15.99;71.88;151670.66;1677482;84;21324;-63
2022/04/25 07:52:56;;;;;;;7.60;3.75;;;;;;;15.97;71.79;151666.72;1677587;84;21495;-64
2022/04/25 07:55:25;;;;;;;8.90;3.50;;;;;;;15.95;72.04;151661.52;1677411;84;21348;-63
2022/04/25 07:57:52;;;;;;;4.72;3.25;;;;;;;15.96;71.86;151662.84;1677766;84;20961;-64
2022/04/25 08:00:21;;;;;;;7.25;3.27;;;;;;;15.94;71.93;151658.91;1677962;84;20969;-63
2022/04/25 08:02:49;;;;;;;8.98;4.12;;;;;;;15.94;71.89;151658.91;1677656;84;20996;-63
2022/04/25 08:05:17;;;;;;;8.55;3.85;;;;;;;15.91;72.07;151651.11;1677885;84;21115;-63
2022/04/25 08:07:45;;;;;;;6.42;3.35;;;;;;;15.92;72.46;151653.70;1684006;83;21091;-63
2022/04/25 08:10:13;;;;;;;7.78;3.58;;;;;;;15.97;72.29;151666.72;1677973;84;21471;-62
2022/04/25 08:18:14;;;;;;;7.83;3.75;;;;;;;16.05;72.22;151686.28;1685942;84;21033;-63
2022/04/25 08:20:42;;;;;;;7.87;3.85;;;;;;;16.05;72.31;151686.28;1684819;83;21062;-63
2022/04/25 08:23:12;;;;;;;8.60;4.30;;;;;;;16.10;72.42;151698.02;1685578;84;21032;-61
2022/04/25 08:25:45;;;;;;;9.55;4.53;;;;;;;16.14;72.50;151708.42;1685097;83;21024;-64
2022/04/25 08:28:14;;;;;;;10.30;4.10;;;;;;;16.22;72.37;151727.97;1684226;84;20910;-63
2022/04/25 08:30:43;;;;;;;7.72;4.03;;;;;;;16.27;71.94;151740.98;1688775;84;21127;-64
2022/04/25 08:33:11;;;;;;;7.30;3.95;;;;;;;16.29;71.54;151747.52;1697787;84;20996;-64
2022/04/25 08:35:40;;;;;;;7.03;4.05;;;;;;;16.30;71.48;151750.12;1697460;84;21087;-64
2022/04/25 08:38:07;;;;;;;9.10;4.08;;;;;;;16.33;71.46;151756.61;1698078;84;21080;-63
2022/04/25 08:40:35;;;;;;;8.63;4.42;;;;;;;16.38;71.28;151768.34;1697972;84;21016;-65
2022/04/25 08:43:04;;;;;;;12.20;4.12;;;;;;;16.44;70.99;151785.30;1697909;84;21225;-64
2022/04/25 08:45:32;;;;;;;8.05;4.03;;;;;;;16.45;70.69;151786.56;1698088;83;20999;-64
2022/04/25 08:48:04;;;;;;;10.82;4.33;;;;;;;16.43;70.77;151781.38;1697991;83;22081;-64
2022/04/25 08:50:32;;;;;;;9.23;4.17;;;;;;;16.47;70.42;151791.83;1697977;84;21143;-64
2022/04/25 08:53:00;;;;;;;11.20;4.58;;;;;;;16.51;70.35;151800.92;1697697;84;21047;-64
2022/04/25 08:55:28;;;;;;;7.67;3.60;;;;;;;16.52;70.18;151804.84;1698096;84;21454;-65
2022/04/25 08:57:57;;;;;;;14.00;4.05;;;;;;;16.58;70.29;151819.19;1697618;84;21051;-63
2022/04/25 09:00:25;;;;;;;7.05;3.45;;;;;;;16.68;69.70;151843.91;1697642;84;21005;-64
2022/04/25 09:02:54;;;;;;;7.58;3.30;;;;;;;16.72;69.47;151855.66;1697602;83;21501;-64
2022/04/25 09:05:22;;;;;;;8.73;3.70;;;;;;;16.80;69.27;151873.87;1692489;84;21076;-63
2022/04/25 09:07:49;;;;;;;10.68;3.95;;;;;;;16.89;68.96;151898.66;1670511;84;21674;-64
2022/04/25 09:10:20;;;;;;;8.35;3.45;;;;;;;17.03;68.52;151932.61;1671009;84;21379;-63
2022/04/25 09:12:48;;;;;;;8.83;3.52;;;;;;;17.23;68.09;151983.44;1670176;84;21103;-64
2022/04/25 09:15:21;;;;;;;10.58;3.98;;;;;;;17.41;67.18;152027.77;1671040;84;21438;-64
2022/04/25 09:17:48;;;;;;;6.85;3.95;;;;;;;17.46;66.61;152042.12;1670649;84;21123;-64
2022/04/25 09:20:15;;;;;;;8.20;3.80;;;;;;;17.49;66.10;152047.33;1651642;85;21247;-63
2022/04/25 09:22:44;;;;;;;5.92;2.95;;;;;;;17.51;65.97;152052.55;1651443;85;21073;-64
2022/04/25 09:25:15;;;;;;;9.68;3.98;;;;;;;17.55;65.26;152062.97;1671154;84;21039;-64
2022/04/25 09:27:43;;;;;;;8.65;3.58;;;;;;;17.63;65.08;152083.86;1671028;84;21040;-64
2022/04/25 09:30:20;;;;;;;10.23;3.75;;;;;;;17.68;65.02;152096.89;1671145;84;21494;-63
2022/04/25 09:32:52;;;;;;;8.08;4.28;;;;;;;17.72;64.39;152107.31;1670587;84;21011;-65
2022/04/25 09:35:42;;;;;;;7.25;3.90;;;;;;;17.64;64.03;152086.47;1671075;84;21425;-63
2022/04/25 09:38:06;;;;;;;8.75;3.72;;;;;;;17.53;63.79;152057.75;1670643;84;21047;-64
2022/04/25 09:40:38;;;;;;;10.82;4.15;;;;;;;17.36;64.31;152014.75;1670538;84;21472;-65
2022/04/25 09:43:18;;;;;;;8.38;4.35;;;;;;;17.23;64.47;151983.44;1671163;84;21150;-63
2022/04/25 09:45:44;;;;;;;5.60;3.65;;;;;;;17.13;64.94;151957.38;1670969;84;21087;-64
2022/04/25 09:48:16;;;;;;;9.68;3.87;;;;;;;17.04;65.11;151935.22;1670987;84;21064;-64
2022/04/25 09:50:46;;;;;;;7.37;4.28;;;;;;;16.90;65.84;151901.25;1670773;84;21048;-66
2022/04/25 09:53:15;;;;;;;6.20;3.92;;;;;;;16.84;66.22;151884.34;1671263;84;21043;-64
2022/04/25 09:55:44;;;;;;;10.30;4.47;;;;;;;16.74;66.34;151859.58;1670371;84;21047;-64
2022/04/25 09:58:19;;;;;;;8.18;4.33;;;;;;;16.63;66.97;151830.89;1671224;84;21101;-65
2022/04/25 10:00:49;;;;;;;9.58;4.20;;;;;;;16.56;67.47;151815.27;1670529;84;21031;-64
2022/04/25 10:03:17;;;;;;;6.75;4.20;;;;;;;16.50;67.66;151799.64;1671367;85;21076;-64
2022/04/25 10:05:48;;;;;;;5.65;3.70;;;;;;;16.42;68.07;151778.77;1670115;85;21147;-64
2022/04/25 10:08:18;;;;;;;8.03;4.20;;;;;;;16.33;68.01;151757.94;1671062;84;21145;-62
2022/04/25 10:10:53;;;;;;;7.95;4.10;;;;;;;16.26;68.38;151739.70;1670952;84;21243;-63
2022/04/25 10:13:20;;;;;;;6.22;4.15;;;;;;;16.22;68.57;151729.25;1676730;83;21009;-64
2022/04/25 10:15:48;;;;;;;11.53;4.33;;;;;;;16.20;68.75;151724.03;1677037;84;21088;-62
2022/04/25 10:18:16;;;;;;;6.85;4.28;;;;;;;16.18;68.92;151718.84;1677369;84;21068;-63
2022/04/25 10:20:46;;;;;;;7.15;4.35;;;;;;;16.14;68.99;151708.42;1678374;83;21147;-64
2022/04/25 10:23:15;;;;;;;7.67;4.08;;;;;;;16.14;69.33;151708.42;1656529;85;20965;-64
2022/04/25 10:25:54;;;;;;;7.97;4.30;;;;;;;16.16;69.13;151713.62;1677320;84;22127;-62
2022/04/25 10:28:29;;;;;;;9.48;4.85;;;;;;;16.16;69.46;151713.62;1681090;84;21010;-63
2022/04/25 10:31:16;;;;;;;7.33;4.62;;;;;;;16.23;69.50;151731.84;1680541;84;21000;-64
2022/04/25 10:33:53;;;;;;;6.97;4.30;;;;;;;16.30;69.32;151748.80;1679512;84;21064;-63
2022/04/25 10:36:42;;;;;;;6.67;3.70;;;;;;;16.39;69.00;151770.95;1680371;85;21872;-63
2022/04/25 10:39:24;;;;;;;9.15;3.90;;;;;;;16.48;68.67;151794.44;1680635;84;20993;-64
2022/04/25 10:44:50;;;;;;;6.92;3.60;;;;;;;16.63;67.31;151830.89;1680852;84;21004;-63
2022/04/25 10:47:21;;;;;;;6.67;3.45;;;;;;;16.65;66.92;151837.42;1681377;85;21363;-64
2022/04/25 10:49:56;;;;;;;6.03;3.52;;;;;;;16.70;66.28;151850.44;1681323;84;21276;-66
2022/04/25 10:52:42;;;;;;;7.45;3.80;;;;;;;16.77;66.24;151867.41;1681358;84;20965;-64
2022/04/25 10:55:31;;;;;;;11.57;3.45;;;;;;;16.86;66.05;151890.84;1681283;84;21105;-63
2022/04/25 10:58:07;;;;;;;5.53;3.30;;;;;;;16.98;65.55;151919.53;1681449;84;21100;-63
2022/04/25 11:00:44;;;;;;;8.85;3.90;;;;;;;17.05;65.03;151937.81;1681201;84;21059;-64
2022/04/25 11:03:27;;;;;;;6.00;3.83;;;;;;;17.06;65.01;151939.14;1681784;84;21471;-65
2022/04/25 11:06:02;;;;;;;5.62;3.33;;;;;;;17.06;64.81;151939.14;1681028;85;21123;-64
2022/04/25 11:08:37;;;;;;;7.05;3.83;;;;;;;17.03;64.64;151932.61;1680814;85;21100;-64
2022/04/25 11:11:16;;;;;;;7.97;4.00;;;;;;;17.01;64.58;151928.67;1677748;85;21136;-63
2022/04/25 11:14:01;;;;;;;7.47;3.65;;;;;;;17.00;64.81;151926.06;1661274;84;21041;-64
2022/04/25 11:16:26;;;;;;;8.00;3.40;;;;;;;17.00;64.50;151924.80;1669709;85;21148;-64
2022/04/25 11:19:20;;;;;;;10.65;3.30;;;;;;;16.95;64.51;151911.72;1684835;83;21309;-66
2022/04/25 11:21:49;;;;;;;5.53;3.30;;;;;;;16.95;64.44;151911.72;1684738;83;21044;-64
2022/04/25 11:24:30;;;;;;;7.85;3.85;;;;;;;16.95;64.43;151911.72;1681965;85;20929;-64
2022/04/25 11:27:01;;;;;;;7.95;3.95;;;;;;;16.92;64.29;151905.19;1684107;85;21485;-64
2022/04/25 11:29:30;;;;;;;5.08;3.45;;;;;;;16.84;64.57;151885.62;1685088;83;21091;-64
2022/04/25 11:32:35;;;;;;;6.22;3.50;;;;;;;16.82;64.75;151880.42;1685209;83;21127;-64
2022/04/25 11:35:00;;;;;;;6.87;3.37;;;;;;;16.80;64.74;151875.22;1686318;83;21055;-64
2022/04/25 11:37:30;;;;;;;8.93;3.45;;;;;;;16.75;64.62;151863.47;1685075;85;20989;-64
2022/04/25 11:40:01;;;;;;;5.83;3.10;;;;;;;16.70;64.88;151849.17;1694722;83;21007;-64
2022/04/25 11:42:31;;;;;;;5.17;3.15;;;;;;;16.66;65.24;151838.70;1712791;83;21105;-64
2022/04/25 11:44:59;;;;;;;5.75;3.67;;;;;;;16.63;65.59;151830.89;1719864;81;21635;-64
2022/04/25 11:47:32;;;;;;;8.60;3.65;;;;;;;16.63;66.04;151832.22;1719777;81;20973;-64
2022/04/25 11:50:02;;;;;;;7.50;3.50;;;;;;;16.64;66.35;151833.50;1719794;83;21111;-63
2022/04/25 11:52:31;;;;;;;7.10;3.45;;;;;;;16.66;66.35;151838.70;1719703;83;21003;-64
2022/04/25 11:54:58;;;;;;;6.22;3.52;;;;;;;16.64;66.31;151833.50;1720462;81;21182;-63
2022/04/25 11:57:28;;;;;;;9.38;3.65;;;;;;;16.60;66.42;151825.69;1723009;82;21008;-63
2022/04/25 12:00:11;;;;;;;7.12;4.08;;;;;;;16.58;66.43;151820.47;1696503;82;21062;-63
2022/04/25 12:02:43;;;;;;;6.92;3.55;;;;;;;16.50;66.39;151799.64;1646691;84;21064;-65
2022/04/25 12:05:12;;;;;;;7.15;4.45;;;;;;;16.40;66.90;151773.55;1673231;84;21112;-64
2022/04/25 12:15:34;;;;;;;5.10;3.67;;;;;;;16.31;67.27;151751.41;1610959;88;21190;-64